sensor_id;sensor_type;location;lat;lon;timestamp;P1;durP1;ratioP1;P2;durP2;ratioP2
40695;SDS011;40425;51.102;17.208;2023-05-10T00:03:20;5.25;;;2.78;;
40695;SDS011;40425;51.102;17.208;2023-05-10T00:08:21;9.30;;;3.03;;
40695;SDS011;40425;51.102;17.208;2023-05-10T00:13:21;7.07;;;3.00;;
40695;SDS011;40425;51.102;17.208;2023-05-10T00:18:22;6.68;;;2.95;;
40695;SDS011;40425;51.102;17.208;2023-05-10T00:23:23;4.95;;;2.60;;
40695;SDS011;40425;51.102;17.208;2023-05-10T00:28:24;5.60;;;2.78;;
40695;SDS011;40425;51.102;17.208;2023-05-10T00:33:27;7.95;;;3.05;;
40695;SDS011;40425;51.102;17.208;2023-05-10T00:38:27;8.70;;;3.00;;
40695;SDS011;40425;51.102;17.208;2023-05-10T00:43:28;9.95;;;3.70;;
40695;SDS011;40425;51.102;17.208;2023-05-10T00:48:29;7.10;;;3.07;;
40695;SDS011;40425;51.102;17.208;2023-05-10T00:53:31;6.33;;;2.70;;
40695;SDS011;40425;51.102;17.208;2023-05-10T00:58:32;7.70;;;3.47;;
40695;SDS011;40425;51.102;17.208;2023-05-10T01:03:33;9.73;;;3.63;;
40695;SDS011;40425;51.102;17.208;2023-05-10T01:08:35;7.37;;;3.00;;
40695;SDS011;40425;51.102;17.208;2023-05-10T01:13:37;6.40;;;3.87;;
40695;SDS011;40425;51.102;17.208;2023-05-10T01:18:41;6.63;;;2.33;;
40695;SDS011;40425;51.102;17.208;2023-05-10T01:23:45;4.13;;;2.93;;
40695;SDS011;40425;51.102;17.208;2023-05-10T01:29:27;5.25;;;2.90;;
40695;SDS011;40425;51.102;17.208;2023-05-10T01:34:40;7.13;;;3.37;;
40695;SDS011;40425;51.102;17.208;2023-05-10T01:39:58;5.10;;;2.90;;
40695;SDS011;40425;51.102;17.208;2023-05-10T01:45:49;5.87;;;3.47;;
40695;SDS011;40425;51.102;17.208;2023-05-10T01:50:58;8.03;;;3.70;;
40695;SDS011;40425;51.102;17.208;2023-05-10T01:55:59;6.00;;;3.47;;
40695;SDS011;40425;51.102;17.208;2023-05-10T02:01:03;6.13;;;2.87;;
40695;SDS011;40425;51.102;17.208;2023-05-10T02:06:06;6.27;;;3.57;;
40695;SDS011;40425;51.102;17.208;2023-05-10T02:11:09;8.27;;;3.50;;
40695;SDS011;40425;51.102;17.208;2023-05-10T02:16:13;6.40;;;3.03;;
40695;SDS011;40425;51.102;17.208;2023-05-10T02:21:16;6.63;;;3.20;;
40695;SDS011;40425;51.102;17.208;2023-05-10T02:26:18;5.07;;;3.20;;
40695;SDS011;40425;51.102;17.208;2023-05-10T02:31:22;7.17;;;3.30;;
40695;SDS011;40425;51.102;17.208;2023-05-10T02:36:23;5.67;;;3.37;;
40695;SDS011;40425;51.102;17.208;2023-05-10T02:41:27;7.03;;;2.93;;
40695;SDS011;40425;51.102;17.208;2023-05-10T02:46:30;9.13;;;3.73;;
40695;SDS011;40425;51.102;17.208;2023-05-10T02:51:32;5.97;;;3.50;;
40695;SDS011;40425;51.102;17.208;2023-05-10T02:56:42;8.33;;;4.13;;
40695;SDS011;40425;51.102;17.208;2023-05-10T03:01:47;7.80;;;3.53;;
40695;SDS011;40425;51.102;17.208;2023-05-10T03:06:48;6.07;;;3.13;;
40695;SDS011;40425;51.102;17.208;2023-05-10T03:22:57;7.43;;;3.47;;
40695;SDS011;40425;51.102;17.208;2023-05-10T03:28:26;6.03;;;3.33;;
40695;SDS011;40425;51.102;17.208;2023-05-10T03:33:28;7.67;;;3.50;;
40695;SDS011;40425;51.102;17.208;2023-05-10T03:38:29;6.37;;;3.33;;
40695;SDS011;40425;51.102;17.208;2023-05-10T03:43:30;6.18;;;2.90;;
40695;SDS011;40425;51.102;17.208;2023-05-10T03:48:32;5.60;;;3.28;;
40695;SDS011;40425;51.102;17.208;2023-05-10T03:53:33;6.50;;;3.10;;
40695;SDS011;40425;51.102;17.208;2023-05-10T03:58:34;6.35;;;3.10;;
40695;SDS011;40425;51.102;17.208;2023-05-10T04:03:35;7.18;;;3.08;;
40695;SDS011;40425;51.102;17.208;2023-05-10T04:08:36;8.75;;;3.15;;
40695;SDS011;40425;51.102;17.208;2023-05-10T04:13:37;5.97;;;3.22;;
40695;SDS011;40425;51.102;17.208;2023-05-10T04:18:38;12.18;;;3.80;;
40695;SDS011;40425;51.102;17.208;2023-05-10T04:23:40;6.50;;;3.40;;
40695;SDS011;40425;51.102;17.208;2023-05-10T04:28:41;6.43;;;3.15;;
40695;SDS011;40425;51.102;17.208;2023-05-10T04:33:42;5.68;;;2.92;;
40695;SDS011;40425;51.102;17.208;2023-05-10T04:38:43;7.95;;;2.63;;
40695;SDS011;40425;51.102;17.208;2023-05-10T04:43:44;10.75;;;3.38;;
40695;SDS011;40425;51.102;17.208;2023-05-10T04:48:44;6.68;;;3.33;;
40695;SDS011;40425;51.102;17.208;2023-05-10T04:53:45;7.03;;;3.28;;
40695;SDS011;40425;51.102;17.208;2023-05-10T04:58:46;6.50;;;2.90;;
40695;SDS011;40425;51.102;17.208;2023-05-10T05:03:47;6.80;;;3.22;;
40695;SDS011;40425;51.102;17.208;2023-05-10T05:08:48;9.25;;;3.17;;
40695;SDS011;40425;51.102;17.208;2023-05-10T05:13:49;5.93;;;3.17;;
40695;SDS011;40425;51.102;17.208;2023-05-10T05:18:50;10.68;;;2.97;;
40695;SDS011;40425;51.102;17.208;2023-05-10T05:23:51;13.13;;;2.90;;
40695;SDS011;40425;51.102;17.208;2023-05-10T05:28:52;7.15;;;2.80;;
40695;SDS011;40425;51.102;17.208;2023-05-10T05:33:54;8.32;;;3.42;;
40695;SDS011;40425;51.102;17.208;2023-05-10T05:38:55;6.07;;;3.38;;
40695;SDS011;40425;51.102;17.208;2023-05-10T05:43:56;9.43;;;3.28;;
40695;SDS011;40425;51.102;17.208;2023-05-10T05:48:57;7.05;;;3.47;;
40695;SDS011;40425;51.102;17.208;2023-05-10T05:53:58;6.30;;;3.28;;
40695;SDS011;40425;51.102;17.208;2023-05-10T05:58:59;7.70;;;2.97;;
40695;SDS011;40425;51.102;17.208;2023-05-10T06:04:00;6.80;;;3.40;;
40695;SDS011;40425;51.102;17.208;2023-05-10T06:09:01;4.75;;;2.78;;
40695;SDS011;40425;51.102;17.208;2023-05-10T06:14:02;6.97;;;3.28;;
40695;SDS011;40425;51.102;17.208;2023-05-10T06:19:07;6.45;;;2.72;;
40695;SDS011;40425;51.102;17.208;2023-05-10T06:24:08;4.90;;;2.67;;
40695;SDS011;40425;51.102;17.208;2023-05-10T06:29:09;5.47;;;2.25;;
40695;SDS011;40425;51.102;17.208;2023-05-10T06:34:10;5.70;;;2.58;;
40695;SDS011;40425;51.102;17.208;2023-05-10T06:39:11;6.65;;;2.25;;
40695;SDS011;40425;51.102;17.208;2023-05-10T06:44:12;7.15;;;2.92;;
40695;SDS011;40425;51.102;17.208;2023-05-10T06:49:13;5.65;;;2.17;;
40695;SDS011;40425;51.102;17.208;2023-05-10T06:54:14;6.07;;;1.85;;
40695;SDS011;40425;51.102;17.208;2023-05-10T06:59:15;4.85;;;2.00;;
40695;SDS011;40425;51.102;17.208;2023-05-10T07:04:16;3.90;;;1.80;;
40695;SDS011;40425;51.102;17.208;2023-05-10T07:09:17;4.40;;;2.05;;
40695;SDS011;40425;51.102;17.208;2023-05-10T07:14:18;3.35;;;1.50;;
40695;SDS011;40425;51.102;17.208;2023-05-10T07:19:19;6.68;;;1.85;;
40695;SDS011;40425;51.102;17.208;2023-05-10T07:24:20;6.68;;;2.10;;
40695;SDS011;40425;51.102;17.208;2023-05-10T07:29:21;2.47;;;1.50;;
40695;SDS011;40425;51.102;17.208;2023-05-10T07:34:22;2.78;;;1.45;;
40695;SDS011;40425;51.102;17.208;2023-05-10T07:39:22;2.75;;;1.42;;
40695;SDS011;40425;51.102;17.208;2023-05-10T07:44:23;3.40;;;1.58;;
40695;SDS011;40425;51.102;17.208;2023-05-10T07:49:25;11.35;;;1.50;;
40695;SDS011;40425;51.102;17.208;2023-05-10T07:54:26;8.18;;;1.73;;
40695;SDS011;40425;51.102;17.208;2023-05-10T07:59:27;4.00;;;1.88;;
40695;SDS011;40425;51.102;17.208;2023-05-10T08:04:27;4.45;;;1.60;;
40695;SDS011;40425;51.102;17.208;2023-05-10T08:09:28;6.78;;;1.85;;
40695;SDS011;40425;51.102;17.208;2023-05-10T08:14:29;5.97;;;1.88;;
40695;SDS011;40425;51.102;17.208;2023-05-10T08:19:30;9.27;;;2.67;;
40695;SDS011;40425;51.102;17.208;2023-05-10T08:24:31;12.60;;;2.28;;
40695;SDS011;40425;51.102;17.208;2023-05-10T08:29:32;4.07;;;1.60;;
40695;SDS011;40425;51.102;17.208;2023-05-10T08:34:33;11.40;;;2.72;;
40695;SDS011;40425;51.102;17.208;2023-05-10T08:39:34;7.43;;;1.40;;
40695;SDS011;40425;51.102;17.208;2023-05-10T08:44:35;3.40;;;1.10;;
40695;SDS011;40425;51.102;17.208;2023-05-10T08:49:36;5.90;;;1.23;;
40695;SDS011;40425;51.102;17.208;2023-05-10T08:54:37;4.03;;;1.27;;
40695;SDS011;40425;51.102;17.208;2023-05-10T08:59:38;4.00;;;1.35;;
40695;SDS011;40425;51.102;17.208;2023-05-10T09:04:39;3.15;;;1.00;;
40695;SDS011;40425;51.102;17.208;2023-05-10T09:09:41;3.67;;;1.23;;
40695;SDS011;40425;51.102;17.208;2023-05-10T09:14:42;7.32;;;1.38;;
40695;SDS011;40425;51.102;17.208;2023-05-10T09:19:45;12.07;;;1.00;;
40695;SDS011;40425;51.102;17.208;2023-05-10T09:24:46;9.07;;;1.10;;
40695;SDS011;40425;51.102;17.208;2023-05-10T09:29:47;4.45;;;1.33;;
40695;SDS011;40425;51.102;17.208;2023-05-10T09:34:47;6.85;;;1.25;;
40695;SDS011;40425;51.102;17.208;2023-05-10T09:39:50;5.15;;;1.20;;
40695;SDS011;40425;51.102;17.208;2023-05-10T09:44:59;3.80;;;1.27;;
40695;SDS011;40425;51.102;17.208;2023-05-10T09:50:04;6.43;;;1.60;;
40695;SDS011;40425;51.102;17.208;2023-05-10T09:55:06;4.03;;;1.58;;
40695;SDS011;40425;51.102;17.208;2023-05-10T10:00:07;1.88;;;1.10;;
40695;SDS011;40425;51.102;17.208;2023-05-10T10:05:12;8.73;;;0.90;;
40695;SDS011;40425;51.102;17.208;2023-05-10T10:10:14;4.35;;;1.08;;
40695;SDS011;40425;51.102;17.208;2023-05-10T10:15:15;3.47;;;0.80;;
40695;SDS011;40425;51.102;17.208;2023-05-10T10:20:17;3.20;;;1.00;;
40695;SDS011;40425;51.102;17.208;2023-05-10T10:25:20;1.98;;;1.02;;
40695;SDS011;40425;51.102;17.208;2023-05-10T10:30:40;5.22;;;1.05;;
40695;SDS011;40425;51.102;17.208;2023-05-10T10:35:44;6.73;;;0.90;;
40695;SDS011;40425;51.102;17.208;2023-05-10T10:40:46;10.15;;;1.08;;
40695;SDS011;40425;51.102;17.208;2023-05-10T10:51:17;12.38;;;1.48;;
40695;SDS011;40425;51.102;17.208;2023-05-10T10:56:18;9.20;;;1.00;;
40695;SDS011;40425;51.102;17.208;2023-05-10T11:01:23;2.95;;;0.93;;
40695;SDS011;40425;51.102;17.208;2023-05-10T11:06:33;2.22;;;1.10;;
40695;SDS011;40425;51.102;17.208;2023-05-10T11:11:35;3.70;;;0.95;;
40695;SDS011;40425;51.102;17.208;2023-05-10T11:16:48;2.15;;;0.95;;
40695;SDS011;40425;51.102;17.208;2023-05-10T11:22:31;5.82;;;1.15;;
40695;SDS011;40425;51.102;17.208;2023-05-10T11:27:13;2.90;;;0.90;;
40695;SDS011;40425;51.102;17.208;2023-05-10T11:32:14;1.45;;;0.50;;
40695;SDS011;40425;51.102;17.208;2023-05-10T11:37:15;4.15;;;0.80;;
40695;SDS011;40425;51.102;17.208;2023-05-10T11:42:18;4.53;;;0.70;;
40695;SDS011;40425;51.102;17.208;2023-05-10T11:47:19;4.65;;;0.90;;
40695;SDS011;40425;51.102;17.208;2023-05-10T11:52:20;7.00;;;0.80;;
40695;SDS011;40425;51.102;17.208;2023-05-10T11:57:25;6.93;;;0.90;;
40695;SDS011;40425;51.102;17.208;2023-05-10T12:02:26;2.28;;;0.57;;
40695;SDS011;40425;51.102;17.208;2023-05-10T12:07:29;4.82;;;0.75;;
40695;SDS011;40425;51.102;17.208;2023-05-10T12:13:03;7.18;;;0.77;;
40695;SDS011;40425;51.102;17.208;2023-05-10T12:17:57;5.45;;;0.50;;
40695;SDS011;40425;51.102;17.208;2023-05-10T12:22:58;4.90;;;0.70;;
40695;SDS011;40425;51.102;17.208;2023-05-10T12:28:06;1.90;;;0.60;;
40695;SDS011;40425;51.102;17.208;2023-05-10T12:33:09;1.13;;;0.40;;
40695;SDS011;40425;51.102;17.208;2023-05-10T12:38:24;9.07;;;0.73;;
40695;SDS011;40425;51.102;17.208;2023-05-10T12:43:25;2.67;;;0.45;;
40695;SDS011;40425;51.102;17.208;2023-05-10T12:48:26;3.40;;;0.50;;
40695;SDS011;40425;51.102;17.208;2023-05-10T12:53:28;4.32;;;0.43;;
40695;SDS011;40425;51.102;17.208;2023-05-10T12:58:29;4.18;;;0.52;;
40695;SDS011;40425;51.102;17.208;2023-05-10T13:03:30;5.57;;;0.40;;
40695;SDS011;40425;51.102;17.208;2023-05-10T13:08:31;3.95;;;0.45;;
40695;SDS011;40425;51.102;17.208;2023-05-10T13:13:33;2.58;;;0.30;;
40695;SDS011;40425;51.102;17.208;2023-05-10T13:18:34;3.58;;;0.60;;
40695;SDS011;40425;51.102;17.208;2023-05-10T13:23:35;5.05;;;0.40;;
40695;SDS011;40425;51.102;17.208;2023-05-10T13:28:36;8.45;;;0.50;;
40695;SDS011;40425;51.102;17.208;2023-05-10T13:33:39;4.82;;;0.47;;
40695;SDS011;40425;51.102;17.208;2023-05-10T13:38:40;2.45;;;0.40;;
40695;SDS011;40425;51.102;17.208;2023-05-10T13:43:41;3.10;;;0.50;;
40695;SDS011;40425;51.102;17.208;2023-05-10T13:48:44;1.17;;;0.30;;
40695;SDS011;40425;51.102;17.208;2023-05-10T13:53:45;11.77;;;0.98;;
40695;SDS011;40425;51.102;17.208;2023-05-10T13:58:47;8.35;;;0.30;;
40695;SDS011;40425;51.102;17.208;2023-05-10T14:03:48;17.77;;;0.70;;
40695;SDS011;40425;51.102;17.208;2023-05-10T14:08:49;12.77;;;0.95;;
40695;SDS011;40425;51.102;17.208;2023-05-10T14:13:49;4.05;;;0.40;;
40695;SDS011;40425;51.102;17.208;2023-05-10T14:18:50;19.65;;;1.35;;
40695;SDS011;40425;51.102;17.208;2023-05-10T14:23:51;7.80;;;0.43;;
40695;SDS011;40425;51.102;17.208;2023-05-10T14:28:52;5.10;;;0.60;;
40695;SDS011;40425;51.102;17.208;2023-05-10T14:33:53;1.20;;;0.40;;
40695;SDS011;40425;51.102;17.208;2023-05-10T14:38:55;10.00;;;0.60;;
40695;SDS011;40425;51.102;17.208;2023-05-10T14:43:56;1.83;;;0.40;;
40695;SDS011;40425;51.102;17.208;2023-05-10T14:48:57;2.40;;;0.50;;
40695;SDS011;40425;51.102;17.208;2023-05-10T14:53:58;3.92;;;0.50;;
40695;SDS011;40425;51.102;17.208;2023-05-10T14:58:59;3.15;;;0.50;;
40695;SDS011;40425;51.102;17.208;2023-05-10T15:04:00;2.50;;;0.30;;
40695;SDS011;40425;51.102;17.208;2023-05-10T15:09:01;6.22;;;0.60;;
40695;SDS011;40425;51.102;17.208;2023-05-10T15:14:06;3.70;;;0.50;;
40695;SDS011;40425;51.102;17.208;2023-05-10T15:19:07;9.05;;;0.40;;
40695;SDS011;40425;51.102;17.208;2023-05-10T15:24:08;8.30;;;0.55;;
40695;SDS011;40425;51.102;17.208;2023-05-10T15:29:09;0.80;;;0.40;;
40695;SDS011;40425;51.102;17.208;2023-05-10T15:34:10;2.80;;;0.30;;
40695;SDS011;40425;51.102;17.208;2023-05-10T15:39:12;5.25;;;0.40;;
40695;SDS011;40425;51.102;17.208;2023-05-10T15:44:14;1.15;;;0.45;;
40695;SDS011;40425;51.102;17.208;2023-05-10T15:49:15;1.63;;;0.30;;
40695;SDS011;40425;51.102;17.208;2023-05-10T15:54:17;4.03;;;0.43;;
40695;SDS011;40425;51.102;17.208;2023-05-10T15:59:18;7.32;;;0.80;;
40695;SDS011;40425;51.102;17.208;2023-05-10T16:04:21;4.63;;;0.52;;
40695;SDS011;40425;51.102;17.208;2023-05-10T16:09:22;3.20;;;0.60;;
40695;SDS011;40425;51.102;17.208;2023-05-10T16:14:23;1.98;;;0.60;;
40695;SDS011;40425;51.102;17.208;2023-05-10T16:19:25;2.17;;;0.77;;
40695;SDS011;40425;51.102;17.208;2023-05-10T16:24:27;3.13;;;0.70;;
40695;SDS011;40425;51.102;17.208;2023-05-10T16:29:28;4.80;;;0.63;;
40695;SDS011;40425;51.102;17.208;2023-05-10T16:34:28;7.60;;;0.80;;
40695;SDS011;40425;51.102;17.208;2023-05-10T16:39:30;6.07;;;0.50;;
40695;SDS011;40425;51.102;17.208;2023-05-10T16:44:32;3.10;;;0.60;;
40695;SDS011;40425;51.102;17.208;2023-05-10T16:49:34;3.58;;;0.70;;
40695;SDS011;40425;51.102;17.208;2023-05-10T16:54:36;7.13;;;0.55;;
40695;SDS011;40425;51.102;17.208;2023-05-10T16:59:37;2.47;;;0.80;;
40695;SDS011;40425;51.102;17.208;2023-05-10T17:04:38;7.95;;;0.80;;
40695;SDS011;40425;51.102;17.208;2023-05-10T17:09:41;5.15;;;0.88;;
40695;SDS011;40425;51.102;17.208;2023-05-10T17:14:43;13.27;;;1.45;;
40695;SDS011;40425;51.102;17.208;2023-05-10T17:19:44;7.80;;;1.08;;
40695;SDS011;40425;51.102;17.208;2023-05-10T17:24:45;5.15;;;0.77;;
40695;SDS011;40425;51.102;17.208;2023-05-10T17:29:46;4.57;;;0.98;;
40695;SDS011;40425;51.102;17.208;2023-05-10T17:34:47;4.72;;;0.73;;
40695;SDS011;40425;51.102;17.208;2023-05-10T17:39:48;3.58;;;1.63;;
40695;SDS011;40425;51.102;17.208;2023-05-10T17:44:49;6.45;;;2.47;;
40695;SDS011;40425;51.102;17.208;2023-05-10T17:49:50;6.28;;;3.10;;
40695;SDS011;40425;51.102;17.208;2023-05-10T17:54:51;9.88;;;1.42;;
40695;SDS011;40425;51.102;17.208;2023-05-10T17:59:52;7.20;;;1.27;;
40695;SDS011;40425;51.102;17.208;2023-05-10T18:04:53;6.43;;;0.95;;
40695;SDS011;40425;51.102;17.208;2023-05-10T18:09:54;8.20;;;2.58;;
40695;SDS011;40425;51.102;17.208;2023-05-10T18:14:56;81.25;;;7.40;;
40695;SDS011;40425;51.102;17.208;2023-05-10T18:19:57;13.18;;;2.05;;
40695;SDS011;40425;51.102;17.208;2023-05-10T18:24:58;20.95;;;2.67;;
40695;SDS011;40425;51.102;17.208;2023-05-10T18:29:59;10.93;;;2.05;;
40695;SDS011;40425;51.102;17.208;2023-05-10T18:35:00;9.57;;;1.73;;
40695;SDS011;40425;51.102;17.208;2023-05-10T18:40:01;7.00;;;1.85;;
40695;SDS011;40425;51.102;17.208;2023-05-10T18:45:04;12.50;;;1.90;;
40695;SDS011;40425;51.102;17.208;2023-05-10T18:50:05;8.93;;;2.15;;
40695;SDS011;40425;51.102;17.208;2023-05-10T18:55:09;6.70;;;2.15;;
40695;SDS011;40425;51.102;17.208;2023-05-10T19:00:11;13.50;;;2.70;;
40695;SDS011;40425;51.102;17.208;2023-05-10T19:05:14;9.88;;;2.30;;
40695;SDS011;40425;51.102;17.208;2023-05-10T19:10:17;5.53;;;1.70;;
40695;SDS011;40425;51.102;17.208;2023-05-10T19:15:19;10.10;;;3.58;;
40695;SDS011;40425;51.102;17.208;2023-05-10T19:20:22;8.45;;;3.45;;
40695;SDS011;40425;51.102;17.208;2023-05-10T19:25:24;9.52;;;3.38;;
40695;SDS011;40425;51.102;17.208;2023-05-10T19:30:28;10.00;;;3.78;;
40695;SDS011;40425;51.102;17.208;2023-05-10T19:35:30;8.93;;;3.53;;
40695;SDS011;40425;51.102;17.208;2023-05-10T19:40:31;8.48;;;4.25;;
40695;SDS011;40425;51.102;17.208;2023-05-10T19:45:33;10.38;;;3.65;;
40695;SDS011;40425;51.102;17.208;2023-05-10T19:50:35;7.28;;;3.72;;
40695;SDS011;40425;51.102;17.208;2023-05-10T19:55:37;7.65;;;2.75;;
40695;SDS011;40425;51.102;17.208;2023-05-10T20:00:38;5.75;;;2.88;;
40695;SDS011;40425;51.102;17.208;2023-05-10T20:05:38;5.07;;;2.67;;
40695;SDS011;40425;51.102;17.208;2023-05-10T20:10:39;11.43;;;2.75;;
40695;SDS011;40425;51.102;17.208;2023-05-10T20:15:40;6.22;;;3.13;;
40695;SDS011;40425;51.102;17.208;2023-05-10T20:20:41;8.55;;;2.83;;
40695;SDS011;40425;51.102;17.208;2023-05-10T20:25:42;5.65;;;3.20;;
40695;SDS011;40425;51.102;17.208;2023-05-10T20:30:43;8.40;;;3.75;;
40695;SDS011;40425;51.102;17.208;2023-05-10T20:35:44;6.82;;;3.40;;
40695;SDS011;40425;51.102;17.208;2023-05-10T20:40:45;45.60;;;6.75;;
40695;SDS011;40425;51.102;17.208;2023-05-10T20:45:48;12.85;;;3.30;;
40695;SDS011;40425;51.102;17.208;2023-05-10T20:50:48;17.85;;;4.07;;
40695;SDS011;40425;51.102;17.208;2023-05-10T20:55:51;8.00;;;3.28;;
40695;SDS011;40425;51.102;17.208;2023-05-10T21:00:55;14.73;;;3.42;;
40695;SDS011;40425;51.102;17.208;2023-05-10T21:05:56;3.92;;;2.78;;
40695;SDS011;40425;51.102;17.208;2023-05-10T21:10:57;3.85;;;2.63;;
40695;SDS011;40425;51.102;17.208;2023-05-10T21:16:00;3.38;;;2.20;;
40695;SDS011;40425;51.102;17.208;2023-05-10T21:21:01;5.28;;;1.77;;
40695;SDS011;40425;51.102;17.208;2023-05-10T21:26:03;5.22;;;2.08;;
40695;SDS011;40425;51.102;17.208;2023-05-10T21:31:04;4.30;;;2.10;;
40695;SDS011;40425;51.102;17.208;2023-05-10T21:36:05;2.95;;;1.63;;
40695;SDS011;40425;51.102;17.208;2023-05-10T21:41:06;3.85;;;2.17;;
40695;SDS011;40425;51.102;17.208;2023-05-10T21:46:07;2.42;;;1.45;;
40695;SDS011;40425;51.102;17.208;2023-05-10T21:51:08;7.95;;;2.80;;
40695;SDS011;40425;51.102;17.208;2023-05-10T21:56:09;6.95;;;1.70;;
40695;SDS011;40425;51.102;17.208;2023-05-10T22:01:11;9.77;;;2.10;;
40695;SDS011;40425;51.102;17.208;2023-05-10T22:06:14;7.85;;;1.75;;
40695;SDS011;40425;51.102;17.208;2023-05-10T22:11:14;5.80;;;2.78;;
40695;SDS011;40425;51.102;17.208;2023-05-10T22:16:15;4.55;;;1.85;;
40695;SDS011;40425;51.102;17.208;2023-05-10T22:21:16;3.20;;;1.92;;
40695;SDS011;40425;51.102;17.208;2023-05-10T22:26:17;6.18;;;2.15;;
40695;SDS011;40425;51.102;17.208;2023-05-10T22:31:18;4.97;;;1.55;;
40695;SDS011;40425;51.102;17.208;2023-05-10T22:36:19;7.20;;;2.15;;
40695;SDS011;40425;51.102;17.208;2023-05-10T22:41:20;4.45;;;2.10;;
40695;SDS011;40425;51.102;17.208;2023-05-10T22:46:21;4.40;;;1.90;;
40695;SDS011;40425;51.102;17.208;2023-05-10T22:51:22;4.60;;;1.95;;
40695;SDS011;40425;51.102;17.208;2023-05-10T22:56:23;4.55;;;1.98;;
40695;SDS011;40425;51.102;17.208;2023-05-10T23:01:25;5.10;;;2.40;;
40695;SDS011;40425;51.102;17.208;2023-05-10T23:06:25;6.53;;;1.98;;
40695;SDS011;40425;51.102;17.208;2023-05-10T23:11:27;5.60;;;2.10;;
40695;SDS011;40425;51.102;17.208;2023-05-10T23:16:28;9.35;;;3.00;;
40695;SDS011;40425;51.102;17.208;2023-05-10T23:21:29;3.67;;;2.00;;
40695;SDS011;40425;51.102;17.208;2023-05-10T23:26:30;5.07;;;1.90;;
40695;SDS011;40425;51.102;17.208;2023-05-10T23:31:31;3.75;;;2.45;;
40695;SDS011;40425;51.102;17.208;2023-05-10T23:36:31;4.25;;;2.50;;
40695;SDS011;40425;51.102;17.208;2023-05-10T23:41:33;4.05;;;1.98;;
40695;SDS011;40425;51.102;17.208;2023-05-10T23:46:34;4.40;;;2.08;;
40695;SDS011;40425;51.102;17.208;2023-05-10T23:51:35;9.93;;;2.53;;
40695;SDS011;40425;51.102;17.208;2023-05-10T23:56:36;3.97;;;2.10;;
